sensor_id;sensor_type;location;lat;lon;timestamp;P1;P2;P0
46885;PMS5003;32622;48.202;11.326;2023-04-15T12:44:17;13;5;
46885;PMS5003;32622;48.202;11.326;2023-04-15T12:46:21;13;7;
46885;PMS5003;32622;48.202;11.326;2023-04-15T12:48:24;11;7;
46885;PMS5003;32622;48.202;11.326;2023-04-15T12:50:27;12;8;
46885;PMS5003;32622;48.202;11.326;2023-04-15T12:52:42;11;8;
46885;PMS5003;32622;48.202;11.326;2023-04-15T12:54:46;10;8;
46885;PMS5003;32622;48.202;11.326;2023-04-15T12:56:49;9;7;
46885;PMS5003;32622;48.202;11.326;2023-04-15T12:58:52;10;8;
46885;PMS5003;32622;48.202;11.326;2023-04-15T13:00:55;10;8;
46885;PMS5003;32622;48.202;11.326;2023-04-15T13:03:03;9;9;
46885;PMS5003;32622;48.202;11.326;2023-04-15T13:05:06;9;9;
46885;PMS5003;32622;48.202;11.326;2023-04-15T13:07:09;8;8;
46885;PMS5003;32622;48.202;11.326;2023-04-15T13:09:12;8;8;
46885;PMS5003;32622;48.202;11.326;2023-04-15T13:11:15;7;7;
46885;PMS5003;32622;48.202;11.326;2023-04-15T13:13:18;6;6;
46885;PMS5003;32622;48.202;11.326;2023-04-15T13:15:21;6;6;
46885;PMS5003;32622;48.202;11.326;2023-04-15T13:17:24;6;6;
46885;PMS5003;32622;48.202;11.326;2023-04-15T13:19:27;6;6;
46885;PMS5003;32622;48.202;11.326;2023-04-15T13:21:30;7;5;
46885;PMS5003;32622;48.202;11.326;2023-04-15T13:23:33;6;5;
46885;PMS5003;32622;48.202;11.326;2023-04-15T13:25:37;6;5;
46885;PMS5003;32622;48.202;11.326;2023-04-15T13:27:40;6;5;
46885;PMS5003;32622;48.202;11.326;2023-04-15T13:29:44;7;5;
46885;PMS5003;32622;48.202;11.326;2023-04-15T13:31:47;7;5;
46885;PMS5003;32622;48.202;11.326;2023-04-15T13:33:50;7;5;
46885;PMS5003;32622;48.202;11.326;2023-04-15T13:35:53;7;6;
46885;PMS5003;32622;48.202;11.326;2023-04-15T13:37:56;7;6;
46885;PMS5003;32622;48.202;11.326;2023-04-15T13:39:59;7;6;
46885;PMS5003;32622;48.202;11.326;2023-04-15T13:42:02;8;7;
46885;PMS5003;32622;48.202;11.326;2023-04-15T13:44:05;8;7;
46885;PMS5003;32622;48.202;11.326;2023-04-15T13:49:36;8;8;
46885;PMS5003;32622;48.202;11.326;2023-04-15T13:51:40;8;8;
46885;PMS5003;32622;48.202;11.326;2023-04-15T13:53:44;9;9;
46885;PMS5003;32622;48.202;11.326;2023-04-15T13:58:58;4;4;
46885;PMS5003;32622;48.202;11.326;2023-04-15T14:01:01;5;5;
46885;PMS5003;32622;48.202;11.326;2023-04-15T14:03:05;6;6;
46885;PMS5003;32622;48.202;11.326;2023-04-15T14:05:09;9;7;
46885;PMS5003;32622;48.202;11.326;2023-04-15T14:07:17;9;7;
46885;PMS5003;32622;48.202;11.326;2023-04-15T14:09:23;8;7;
46885;PMS5003;32622;48.202;11.326;2023-04-15T14:11:27;8;7;
46885;PMS5003;32622;48.202;11.326;2023-04-15T14:13:30;8;6;
46885;PMS5003;32622;48.202;11.326;2023-04-15T14:15:33;7;6;
46885;PMS5003;32622;48.202;11.326;2023-04-15T14:17:37;8;7;
46885;PMS5003;32622;48.202;11.326;2023-04-15T14:19:42;8;7;
46885;PMS5003;32622;48.202;11.326;2023-04-15T14:22:34;9;8;
46885;PMS5003;32622;48.202;11.326;2023-04-15T14:25:12;10;8;
46885;PMS5003;32622;48.202;11.326;2023-04-15T14:27:19;10;9;
46885;PMS5003;32622;48.202;11.326;2023-04-15T14:31:26;5;5;
46885;PMS5003;32622;48.202;11.326;2023-04-15T14:39:47;7;5;
46885;PMS5003;32622;48.202;11.326;2023-04-15T14:41:50;7;5;
46885;PMS5003;32622;48.202;11.326;2023-04-15T14:43:54;7;5;
46885;PMS5003;32622;48.202;11.326;2023-04-15T14:45:58;7;5;
46885;PMS5003;32622;48.202;11.326;2023-04-15T14:48:01;7;5;
46885;PMS5003;32622;48.202;11.326;2023-04-15T14:50:07;7;5;
46885;PMS5003;32622;48.202;11.326;2023-04-15T14:52:11;6;4;
46885;PMS5003;32622;48.202;11.326;2023-04-15T14:54:14;6;4;
46885;PMS5003;32622;48.202;11.326;2023-04-15T14:56:17;6;4;
46885;PMS5003;32622;48.202;11.326;2023-04-15T14:58:21;6;4;
46885;PMS5003;32622;48.202;11.326;2023-04-15T15:00:38;6;4;
46885;PMS5003;32622;48.202;11.326;2023-04-15T15:02:41;6;4;
46885;PMS5003;32622;48.202;11.326;2023-04-15T15:04:44;8;5;
46885;PMS5003;32622;48.202;11.326;2023-04-15T15:06:47;8;5;
46885;PMS5003;32622;48.202;11.326;2023-04-15T15:08:50;8;5;
46885;PMS5003;32622;48.202;11.326;2023-04-15T15:10:53;8;6;
46885;PMS5003;32622;48.202;11.326;2023-04-15T15:12:56;8;6;
46885;PMS5003;32622;48.202;11.326;2023-04-15T15:14:59;8;6;
46885;PMS5003;32622;48.202;11.326;2023-04-15T15:17:04;8;6;
46885;PMS5003;32622;48.202;11.326;2023-04-15T15:19:07;8;6;
46885;PMS5003;32622;48.202;11.326;2023-04-15T15:21:11;8;6;
46885;PMS5003;32622;48.202;11.326;2023-04-15T15:23:14;8;7;
46885;PMS5003;32622;48.202;11.326;2023-04-15T15:25:17;8;7;
46885;PMS5003;32622;48.202;11.326;2023-04-15T15:27:21;8;7;
46885;PMS5003;32622;48.202;11.326;2023-04-15T15:29:24;9;7;
46885;PMS5003;32622;48.202;11.326;2023-04-15T15:31:27;9;7;
46885;PMS5003;32622;48.202;11.326;2023-04-15T15:33:32;9;7;
46885;PMS5003;32622;48.202;11.326;2023-04-15T15:35:36;9;8;
46885;PMS5003;32622;48.202;11.326;2023-04-15T15:37:41;9;8;
46885;PMS5003;32622;48.202;11.326;2023-04-15T15:39:48;9;8;
46885;PMS5003;32622;48.202;11.326;2023-04-15T15:41:53;9;8;
46885;PMS5003;32622;48.202;11.326;2023-04-15T15:43:58;9;8;
46885;PMS5003;32622;48.202;11.326;2023-04-15T15:46:06;9;8;
46885;PMS5003;32622;48.202;11.326;2023-04-15T15:49:58;9;9;
46885;PMS5003;32622;48.202;11.326;2023-04-15T15:52:01;7;7;
46885;PMS5003;32622;48.202;11.326;2023-04-15T15:54:04;7;7;
46885;PMS5003;32622;48.202;11.326;2023-04-15T15:56:07;6;6;
46885;PMS5003;32622;48.202;11.326;2023-04-15T15:58:10;7;7;
46885;PMS5003;32622;48.202;11.326;2023-04-15T16:00:13;7;7;
46885;PMS5003;32622;48.202;11.326;2023-04-15T16:02:17;6;6;
46885;PMS5003;32622;48.202;11.326;2023-04-15T16:04:22;6;6;
46885;PMS5003;32622;48.202;11.326;2023-04-15T16:06:25;5;5;
46885;PMS5003;32622;48.202;11.326;2023-04-15T16:08:32;5;5;
46885;PMS5003;32622;48.202;11.326;2023-04-15T16:10:44;5;5;
46885;PMS5003;32622;48.202;11.326;2023-04-15T16:12:48;5;5;
46885;PMS5003;32622;48.202;11.326;2023-04-15T16:14:51;4;4;
46885;PMS5003;32622;48.202;11.326;2023-04-15T16:16:55;4;4;
46885;PMS5003;32622;48.202;11.326;2023-04-15T16:21:01;6;6;
46885;PMS5003;32622;48.202;11.326;2023-04-15T16:23:05;6;6;
46885;PMS5003;32622;48.202;11.326;2023-04-15T16:25:15;6;6;
46885;PMS5003;32622;48.202;11.326;2023-04-15T16:27:20;5;5;
46885;PMS5003;32622;48.202;11.326;2023-04-15T16:29:25;6;6;
46885;PMS5003;32622;48.202;11.326;2023-04-15T16:31:30;6;6;
46885;PMS5003;32622;48.202;11.326;2023-04-15T16:33:42;7;7;
46885;PMS5003;32622;48.202;11.326;2023-04-15T16:35:45;8;7;
46885;PMS5003;32622;48.202;11.326;2023-04-15T16:37:58;8;7;
46885;PMS5003;32622;48.202;11.326;2023-04-15T16:40:02;8;7;
46885;PMS5003;32622;48.202;11.326;2023-04-15T16:45:34;3;3;
46885;PMS5003;32622;48.202;11.326;2023-04-15T16:47:37;6;6;
46885;PMS5003;32622;48.202;11.326;2023-04-15T16:49:47;6;6;
46885;PMS5003;32622;48.202;11.326;2023-04-15T16:52:02;7;7;
46885;PMS5003;32622;48.202;11.326;2023-04-15T16:54:05;7;7;
46885;PMS5003;32622;48.202;11.326;2023-04-15T16:56:09;6;6;
46885;PMS5003;32622;48.202;11.326;2023-04-15T16:58:12;6;6;
46885;PMS5003;32622;48.202;11.326;2023-04-15T17:00:20;6;6;
46885;PMS5003;32622;48.202;11.326;2023-04-15T17:02:43;5;5;
46885;PMS5003;32622;48.202;11.326;2023-04-15T17:04:49;5;5;
46885;PMS5003;32622;48.202;11.326;2023-04-15T17:06:54;5;5;
46885;PMS5003;32622;48.202;11.326;2023-04-15T17:08:58;5;5;
46885;PMS5003;32622;48.202;11.326;2023-04-15T17:11:02;5;5;
46885;PMS5003;32622;48.202;11.326;2023-04-15T17:14:28;6;6;
46885;PMS5003;32622;48.202;11.326;2023-04-15T17:19:20;4;4;
46885;PMS5003;32622;48.202;11.326;2023-04-15T17:21:24;4;4;
46885;PMS5003;32622;48.202;11.326;2023-04-15T17:23:43;4;4;
46885;PMS5003;32622;48.202;11.326;2023-04-15T17:25:47;4;4;
46885;PMS5003;32622;48.202;11.326;2023-04-15T17:27:50;4;4;
46885;PMS5003;32622;48.202;11.326;2023-04-15T17:29:53;4;4;
46885;PMS5003;32622;48.202;11.326;2023-04-15T17:31:57;4;4;
46885;PMS5003;32622;48.202;11.326;2023-04-15T17:34:00;4;4;
46885;PMS5003;32622;48.202;11.326;2023-04-15T17:36:04;4;4;
46885;PMS5003;32622;48.202;11.326;2023-04-15T17:38:07;4;4;
46885;PMS5003;32622;48.202;11.326;2023-04-15T17:40:10;4;4;
46885;PMS5003;32622;48.202;11.326;2023-04-15T17:42:13;6;4;
46885;PMS5003;32622;48.202;11.326;2023-04-15T17:44:16;6;4;
46885;PMS5003;32622;48.202;11.326;2023-04-15T17:46:19;6;4;
46885;PMS5003;32622;48.202;11.326;2023-04-15T17:48:21;6;4;
46885;PMS5003;32622;48.202;11.326;2023-04-15T17:50:24;6;4;
46885;PMS5003;32622;48.202;11.326;2023-04-15T17:52:27;6;4;
46885;PMS5003;32622;48.202;11.326;2023-04-15T17:54:30;5;4;
46885;PMS5003;32622;48.202;11.326;2023-04-15T17:56:33;5;4;
46885;PMS5003;32622;48.202;11.326;2023-04-15T17:58:35;5;4;
46885;PMS5003;32622;48.202;11.326;2023-04-15T18:00:38;6;4;
46885;PMS5003;32622;48.202;11.326;2023-04-15T18:02:42;6;4;
46885;PMS5003;32622;48.202;11.326;2023-04-15T18:04:45;6;4;
46885;PMS5003;32622;48.202;11.326;2023-04-15T18:06:49;6;4;
46885;PMS5003;32622;48.202;11.326;2023-04-15T18:08:55;6;4;
46885;PMS5003;32622;48.202;11.326;2023-04-15T18:10:58;6;4;
46885;PMS5003;32622;48.202;11.326;2023-04-15T18:13:01;6;5;
46885;PMS5003;32622;48.202;11.326;2023-04-15T18:15:04;6;5;
46885;PMS5003;32622;48.202;11.326;2023-04-15T18:17:09;6;5;
46885;PMS5003;32622;48.202;11.326;2023-04-15T18:21:52;8;8;
46885;PMS5003;32622;48.202;11.326;2023-04-15T18:23:54;13;9;
46885;PMS5003;32622;48.202;11.326;2023-04-15T18:25:58;13;10;
46885;PMS5003;32622;48.202;11.326;2023-04-15T18:28:01;12;10;
46885;PMS5003;32622;48.202;11.326;2023-04-15T18:30:06;11;9;
46885;PMS5003;32622;48.202;11.326;2023-04-15T18:32:11;11;9;
46885;PMS5003;32622;48.202;11.326;2023-04-15T18:34:14;10;9;
46885;PMS5003;32622;48.202;11.326;2023-04-15T18:38:19;10;10;
46885;PMS5003;32622;48.202;11.326;2023-04-15T18:40:23;10;10;
46885;PMS5003;32622;48.202;11.326;2023-04-15T18:42:26;11;11;
46885;PMS5003;32622;48.202;11.326;2023-04-15T18:44:29;11;11;
46885;PMS5003;32622;48.202;11.326;2023-04-15T18:46:33;12;12;
46885;PMS5003;32622;48.202;11.326;2023-04-15T18:48:36;12;12;
46885;PMS5003;32622;48.202;11.326;2023-04-15T18:50:41;11;11;
46885;PMS5003;32622;48.202;11.326;2023-04-15T18:52:44;11;11;
46885;PMS5003;32622;48.202;11.326;2023-04-15T18:54:47;12;11;
46885;PMS5003;32622;48.202;11.326;2023-04-15T18:56:52;12;11;
46885;PMS5003;32622;48.202;11.326;2023-04-15T18:58:56;12;11;
46885;PMS5003;32622;48.202;11.326;2023-04-15T19:01:00;12;10;
46885;PMS5003;32622;48.202;11.326;2023-04-15T19:03:03;11;10;
46885;PMS5003;32622;48.202;11.326;2023-04-15T19:05:07;10;9;
46885;PMS5003;32622;48.202;11.326;2023-04-15T19:07:11;11;9;
46885;PMS5003;32622;48.202;11.326;2023-04-15T19:09:14;11;10;
46885;PMS5003;32622;48.202;11.326;2023-04-15T19:11:17;12;11;
46885;PMS5003;32622;48.202;11.326;2023-04-15T19:13:21;12;11;
46885;PMS5003;32622;48.202;11.326;2023-04-15T19:15:24;11;11;
46885;PMS5003;32622;48.202;11.326;2023-04-15T19:17:27;11;11;
46885;PMS5003;32622;48.202;11.326;2023-04-15T19:19:30;11;11;
46885;PMS5003;32622;48.202;11.326;2023-04-15T19:21:33;11;11;
46885;PMS5003;32622;48.202;11.326;2023-04-15T19:23:36;13;13;
46885;PMS5003;32622;48.202;11.326;2023-04-15T19:25:40;13;13;
46885;PMS5003;32622;48.202;11.326;2023-04-15T19:27:43;13;13;
46885;PMS5003;32622;48.202;11.326;2023-04-15T19:29:47;13;13;
46885;PMS5003;32622;48.202;11.326;2023-04-15T19:31:51;13;13;
46885;PMS5003;32622;48.202;11.326;2023-04-15T19:33:55;13;13;
46885;PMS5003;32622;48.202;11.326;2023-04-15T19:35:58;13;13;
46885;PMS5003;32622;48.202;11.326;2023-04-15T19:38:03;13;13;
46885;PMS5003;32622;48.202;11.326;2023-04-15T19:40:07;13;13;
46885;PMS5003;32622;48.202;11.326;2023-04-15T19:42:10;15;15;
46885;PMS5003;32622;48.202;11.326;2023-04-15T19:44:14;15;15;
46885;PMS5003;32622;48.202;11.326;2023-04-15T19:46:18;15;15;
46885;PMS5003;32622;48.202;11.326;2023-04-15T19:48:21;14;14;
46885;PMS5003;32622;48.202;11.326;2023-04-15T19:50:27;14;14;
46885;PMS5003;32622;48.202;11.326;2023-04-15T19:52:30;14;14;
46885;PMS5003;32622;48.202;11.326;2023-04-15T19:54:33;15;15;
46885;PMS5003;32622;48.202;11.326;2023-04-15T19:56:36;15;15;
46885;PMS5003;32622;48.202;11.326;2023-04-15T19:58:39;15;15;
46885;PMS5003;32622;48.202;11.326;2023-04-15T20:00:44;15;15;
46885;PMS5003;32622;48.202;11.326;2023-04-15T20:02:48;15;15;
46885;PMS5003;32622;48.202;11.326;2023-04-15T20:04:51;15;15;
46885;PMS5003;32622;48.202;11.326;2023-04-15T20:06:54;15;15;
46885;PMS5003;32622;48.202;11.326;2023-04-15T20:08:58;15;15;
46885;PMS5003;32622;48.202;11.326;2023-04-15T20:11:02;15;15;
46885;PMS5003;32622;48.202;11.326;2023-04-15T20:13:06;16;15;
46885;PMS5003;32622;48.202;11.326;2023-04-15T20:15:11;16;15;
46885;PMS5003;32622;48.202;11.326;2023-04-15T20:17:14;16;15;
46885;PMS5003;32622;48.202;11.326;2023-04-15T20:19:18;16;16;
46885;PMS5003;32622;48.202;11.326;2023-04-15T20:21:21;16;16;
46885;PMS5003;32622;48.202;11.326;2023-04-15T20:23:24;16;16;
46885;PMS5003;32622;48.202;11.326;2023-04-15T20:25:28;16;15;
46885;PMS5003;32622;48.202;11.326;2023-04-15T20:27:32;16;15;
46885;PMS5003;32622;48.202;11.326;2023-04-15T20:29:37;16;15;
46885;PMS5003;32622;48.202;11.326;2023-04-15T20:31:41;17;16;
46885;PMS5003;32622;48.202;11.326;2023-04-15T20:33:44;17;16;
46885;PMS5003;32622;48.202;11.326;2023-04-15T20:35:48;17;16;
46885;PMS5003;32622;48.202;11.326;2023-04-15T20:37:51;18;16;
46885;PMS5003;32622;48.202;11.326;2023-04-15T20:39:56;18;16;
46885;PMS5003;32622;48.202;11.326;2023-04-15T20:42:02;18;16;
46885;PMS5003;32622;48.202;11.326;2023-04-15T20:44:07;17;16;
46885;PMS5003;32622;48.202;11.326;2023-04-15T20:46:16;17;16;
46885;PMS5003;32622;48.202;11.326;2023-04-15T20:48:23;17;16;
46885;PMS5003;32622;48.202;11.326;2023-04-15T20:50:27;17;15;
46885;PMS5003;32622;48.202;11.326;2023-04-15T20:52:34;17;15;
46885;PMS5003;32622;48.202;11.326;2023-04-15T20:54:38;17;15;
46885;PMS5003;32622;48.202;11.326;2023-04-15T20:56:41;17;15;
46885;PMS5003;32622;48.202;11.326;2023-04-15T20:58:47;17;15;
46885;PMS5003;32622;48.202;11.326;2023-04-15T21:00:52;17;15;
46885;PMS5003;32622;48.202;11.326;2023-04-15T21:02:57;17;16;
46885;PMS5003;32622;48.202;11.326;2023-04-15T21:05:00;17;16;
46885;PMS5003;32622;48.202;11.326;2023-04-15T21:07:06;17;16;
46885;PMS5003;32622;48.202;11.326;2023-04-15T21:09:09;16;15;
46885;PMS5003;32622;48.202;11.326;2023-04-15T21:11:12;16;15;
46885;PMS5003;32622;48.202;11.326;2023-04-15T21:13:16;16;15;
46885;PMS5003;32622;48.202;11.326;2023-04-15T21:15:19;15;14;
46885;PMS5003;32622;48.202;11.326;2023-04-15T21:17:22;15;14;
46885;PMS5003;32622;48.202;11.326;2023-04-15T21:19:26;15;14;
46885;PMS5003;32622;48.202;11.326;2023-04-15T21:21:31;15;15;
46885;PMS5003;32622;48.202;11.326;2023-04-15T21:23:34;15;15;
46885;PMS5003;32622;48.202;11.326;2023-04-15T21:25:37;15;15;
46885;PMS5003;32622;48.202;11.326;2023-04-15T21:27:41;16;15;
46885;PMS5003;32622;48.202;11.326;2023-04-15T21:29:46;16;15;
46885;PMS5003;32622;48.202;11.326;2023-04-15T21:31:50;16;15;
46885;PMS5003;32622;48.202;11.326;2023-04-15T21:33:55;15;15;
46885;PMS5003;32622;48.202;11.326;2023-04-15T21:35:58;15;15;
46885;PMS5003;32622;48.202;11.326;2023-04-15T21:38:01;14;14;
46885;PMS5003;32622;48.202;11.326;2023-04-15T21:40:05;13;13;
46885;PMS5003;32622;48.202;11.326;2023-04-15T21:42:09;13;13;
46885;PMS5003;32622;48.202;11.326;2023-04-15T21:44:14;14;14;
46885;PMS5003;32622;48.202;11.326;2023-04-15T21:46:18;14;14;
46885;PMS5003;32622;48.202;11.326;2023-04-15T21:48:23;14;14;
46885;PMS5003;32622;48.202;11.326;2023-04-15T21:50:27;14;14;
46885;PMS5003;32622;48.202;11.326;2023-04-15T21:52:32;15;15;
46885;PMS5003;32622;48.202;11.326;2023-04-15T21:54:36;15;15;
46885;PMS5003;32622;48.202;11.326;2023-04-15T21:56:39;15;15;
46885;PMS5003;32622;48.202;11.326;2023-04-15T21:58:43;14;14;
46885;PMS5003;32622;48.202;11.326;2023-04-15T22:00:46;14;14;
46885;PMS5003;32622;48.202;11.326;2023-04-15T22:02:50;14;14;
46885;PMS5003;32622;48.202;11.326;2023-04-15T22:04:53;14;14;
46885;PMS5003;32622;48.202;11.326;2023-04-15T22:06:57;14;14;
46885;PMS5003;32622;48.202;11.326;2023-04-15T22:09:00;14;14;
46885;PMS5003;32622;48.202;11.326;2023-04-15T22:11:03;15;15;
46885;PMS5003;32622;48.202;11.326;2023-04-15T22:13:08;15;15;
46885;PMS5003;32622;48.202;11.326;2023-04-15T22:15:14;15;15;
46885;PMS5003;32622;48.202;11.326;2023-04-15T22:17:17;15;15;
46885;PMS5003;32622;48.202;11.326;2023-04-15T22:19:21;15;15;
46885;PMS5003;32622;48.202;11.326;2023-04-15T22:21:25;15;15;
46885;PMS5003;32622;48.202;11.326;2023-04-15T22:23:28;15;15;
46885;PMS5003;32622;48.202;11.326;2023-04-15T22:25:34;15;15;
46885;PMS5003;32622;48.202;11.326;2023-04-15T22:27:38;15;15;
46885;PMS5003;32622;48.202;11.326;2023-04-15T22:29:41;16;16;
46885;PMS5003;32622;48.202;11.326;2023-04-15T22:31:44;16;16;
46885;PMS5003;32622;48.202;11.326;2023-04-15T22:33:48;16;16;
46885;PMS5003;32622;48.202;11.326;2023-04-15T22:35:51;15;15;
46885;PMS5003;32622;48.202;11.326;2023-04-15T22:37:55;17;17;
46885;PMS5003;32622;48.202;11.326;2023-04-15T22:39:58;17;17;
46885;PMS5003;32622;48.202;11.326;2023-04-15T22:42:01;17;17;
46885;PMS5003;32622;48.202;11.326;2023-04-15T22:44:05;19;18;
46885;PMS5003;32622;48.202;11.326;2023-04-15T22:46:08;19;18;
46885;PMS5003;32622;48.202;11.326;2023-04-15T22:48:12;19;18;
46885;PMS5003;32622;48.202;11.326;2023-04-15T22:50:15;20;19;
46885;PMS5003;32622;48.202;11.326;2023-04-15T22:52:19;20;19;
46885;PMS5003;32622;48.202;11.326;2023-04-15T22:54:22;20;18;
46885;PMS5003;32622;48.202;11.326;2023-04-15T22:56:25;21;19;
46885;PMS5003;32622;48.202;11.326;2023-04-15T22:58:29;20;18;
46885;PMS5003;32622;48.202;11.326;2023-04-15T23:00:32;20;18;
46885;PMS5003;32622;48.202;11.326;2023-04-15T23:02:35;20;18;
46885;PMS5003;32622;48.202;11.326;2023-04-15T23:04:39;20;18;
46885;PMS5003;32622;48.202;11.326;2023-04-15T23:06:42;20;18;
46885;PMS5003;32622;48.202;11.326;2023-04-15T23:08:45;20;18;
46885;PMS5003;32622;48.202;11.326;2023-04-15T23:10:48;20;18;
46885;PMS5003;32622;48.202;11.326;2023-04-15T23:12:52;18;17;
46885;PMS5003;32622;48.202;11.326;2023-04-15T23:14:55;18;17;
46885;PMS5003;32622;48.202;11.326;2023-04-15T23:16:58;18;17;
46885;PMS5003;32622;48.202;11.326;2023-04-15T23:19:03;19;18;
46885;PMS5003;32622;48.202;11.326;2023-04-15T23:21:05;19;18;
46885;PMS5003;32622;48.202;11.326;2023-04-15T23:23:09;19;18;
46885;PMS5003;32622;48.202;11.326;2023-04-15T23:25:12;19;18;
46885;PMS5003;32622;48.202;11.326;2023-04-15T23:27:15;19;18;
46885;PMS5003;32622;48.202;11.326;2023-04-15T23:29:18;19;18;
46885;PMS5003;32622;48.202;11.326;2023-04-15T23:31:22;18;17;
46885;PMS5003;32622;48.202;11.326;2023-04-15T23:33:25;18;17;
46885;PMS5003;32622;48.202;11.326;2023-04-15T23:35:28;18;17;
46885;PMS5003;32622;48.202;11.326;2023-04-15T23:37:32;18;16;
46885;PMS5003;32622;48.202;11.326;2023-04-15T23:39:36;18;16;
46885;PMS5003;32622;48.202;11.326;2023-04-15T23:41:40;18;16;
46885;PMS5003;32622;48.202;11.326;2023-04-15T23:43:43;17;17;
46885;PMS5003;32622;48.202;11.326;2023-04-15T23:45:47;17;17;
46885;PMS5003;32622;48.202;11.326;2023-04-15T23:47:50;17;17;
46885;PMS5003;32622;48.202;11.326;2023-04-15T23:49:54;15;15;
46885;PMS5003;32622;48.202;11.326;2023-04-15T23:51:57;15;15;
46885;PMS5003;32622;48.202;11.326;2023-04-15T23:54:01;15;15;
46885;PMS5003;32622;48.202;11.326;2023-04-15T23:56:05;16;16;
46885;PMS5003;32622;48.202;11.326;2023-04-15T23:58:08;17;17;
